Terminal Aerodrome Forecast
Issued by NWS Wilmington, NC

Home | Current Version | Previous Version | Text Only | Print | Product List | Glossary On
Versions: 1 2 3 4 5 6 7 8 9 10 11 12 13 14 15 16 17 18 19 20 21 22 23
000
FTUS42 KILM 222320
TAFLBT
TAF
KLBT 222320Z 2300/2324 20006KT P6SM VCSH SCT030 SCT100 BKN150
     FM230200 20005KT P6SM BKN100
     FM230900 23004KT 5SM BR BKN008
     FM231300 24006KT P6SM SCT015 BKN100
     FM231600 23007KT 5SM -SHRA VCTS BKN020CB
     FM232000 24007KT P6SM VCTS BKN035CB=

USA.gov is the U.S. government's official web portal to all federal, state and local government web resources and services.